Charter Communications (CHTR) Institutional Ownership

$273.02
-4.52 (-1.63%)
(As of 05/17/2024 ET)

Institutional Ownership Changes (13F Filings) for Charter Communications (NASDAQ:CHTR)

Current
Institutional Ownership
Percentage
81.76%
Number of
Institutional Buyers
(last 12 months)
433
Total
Institutional Inflows
(last 12 months)
$4.96B
Number of
Institutional Sellers
(last 12 months)
357
Total
Institutional Outflows
(last 12 months)
$3.23B
Get CHTR Insider Trade Alerts

Want to know when executives and insiders are buying or selling Charter Communications stock? Sign up for InsiderTrades.com's daily newsletter to get the latest insider transactions delivered to your inbox daily.

Skip Chart & View Institutional Buying and Selling Data

CHTR Institutional Buying and Selling by Quarter

Charter Communications Major Shareholders & Ownership History

Reporting DateMajor Shareholder NameShares HeldMarket Value% of PortfolioQuarterly Change in SharesOwnership in CompanyDetails
5/17/2024 New Covenant Trust Company N.A.117$34K0.0%N/A0.000%
5/17/2024 Plato Investment Management Ltd1,037$301K0.0%+373.5%0.001%
5/17/2024 Western Pacific Wealth Management LP920$267K0.2%+148.0%0.001%
5/17/2024 Zimmer Partners LP110,361$32.07M0.7%N/A0.077%
5/17/2024 iA Global Asset Management Inc.13,645$3.97M0.0%-7.2%0.009%
5/17/2024 Comerica Bank15,659$4.55M0.0%-4.5%0.011%
5/17/2024 Coppell Advisory Solutions Corp.3,233$940K0.2%N/A0.002%
5/17/2024 Tidal Investments LLC12,279$3.57M0.1%+27.0%0.009%
5/16/2024 California State Teachers Retirement System158,230$45.99M0.1%-0.4%0.110%
5/16/2024 B. Riley Wealth Advisors Inc.1,019$296K0.0%-5.1%0.001%
5/16/2024 Janus Henderson Group PLC12,705$3.69M0.0%-10.0%0.009%
5/16/2024 Kinetic Partners Management LP66,801$19.41M1.4%-56.9%0.046%
5/15/2024 SVB Wealth LLC805$234K0.0%-13.0%0.001%
5/15/2024 Public Employees Retirement System of Ohio51,973$15.11M0.1%-6.7%0.036%
5/15/2024 Public Employees Retirement Association of Colorado13,572$3.94M0.0%-6.1%0.009%
5/15/2024 Kentucky Retirement Systems Insurance Trust Fund3,259$947K0.1%-9.0%0.002%
5/15/2024 Kentucky Retirement Systems7,500$2.18M0.1%-6.8%0.005%
5/15/2024 Price T Rowe Associates Inc. MD135,701$39.44M0.0%-78.1%0.094%
5/15/2024 BOKF NA29,869$8.49M0.2%+23.7%0.021%
5/15/2024 Tremblant Capital Group96,925$28.17M3.0%-12.6%0.067%
5/15/2024 Lazard Asset Management LLC30,640$8.90M0.0%-62.1%0.021%
5/15/2024 LRI Investments LLC216$59K0.0%N/A0.000%
5/15/2024 Gabelli Funds LLC56,953$16.55M0.1%-6.2%0.040%
5/14/2024 Capital World Investors1,152,294$334.89M0.1%-23.8%0.800%
5/14/2024 Capital International Sarl12,764$3.71M0.1%+129.5%0.009%
5/14/2024 Toronto Dominion Bank37,381$10.86M0.0%-13.8%0.026%
5/14/2024 Capital International Inc. CA 82,712$24.04M0.3%+30.7%0.057%
5/14/2024 Capital International Investors10,558,651$3.07B0.6%+53.6%7.331%
5/14/2024 Capital Group Private Client Services Inc.162,308$47.17M0.5%+46.5%0.113%
5/14/2024 Capital Group Investment Management PTE. LTD.2,915$847K0.2%-81.3%0.002%
5/14/2024 Advisors Asset Management Inc.33,367$9.70M0.2%+7.5%0.023%
5/14/2024 Axxcess Wealth Management LLC1,101$320K0.0%+66.8%0.001%
5/14/2024 EP Wealth Advisors LLC1,166$339K0.0%-11.7%0.001%
5/14/2024 CreativeOne Wealth LLC1,079$314K0.0%+59.6%0.001%
5/14/2024 Fayez Sarofim & Co24,010$6.98M0.0%-53.6%0.017%
5/14/2024 Shell Asset Management Co.151$44K0.0%-59.9%0.000%
5/14/2024 Platinum Investment Management Ltd.486$141K0.0%+26.6%0.000%
5/14/2024 Pitcairn Co.1,427$415K0.0%+9.7%0.001%
5/14/2024 CANADA LIFE ASSURANCE Co95,192$27.66M0.1%-45.8%0.066%
5/14/2024 Round Hill Asset Management9,255$2.69M1.6%-0.5%0.006%
Obama’s Forever Term [exposed] (Ad)

America’s Last Election New documentary, America’s Last Election, reveals the true (and terrifying) story of how the D.C. establishment has engineered a brutal new crisis that could hand them permanent power. Power they will use to reshape America to their dark, dystopian vision.

Start streaming it now at no cost here
5/14/2024 American International Group Inc.38,701$11.25M0.0%-2.7%0.027%
5/14/2024 National Bank of Canada FI61,661$16.99M0.0%-42.8%0.043%
5/14/2024 Lake Street Advisors Group LLC1,072$312K0.0%+22.1%0.001%
5/13/2024 Bessemer Group Inc.9,147$2.66M0.0%+50.8%0.006%
5/13/2024 PYA Waltman Capital LLC9,191$2.67M1.0%+6.1%0.006%
5/13/2024 UniSuper Management Pty Ltd4,507$1.31M0.0%+359.9%0.003%
5/13/2024 Clearbridge Investments LLC178,180$51.78M0.0%-43.8%0.124%
5/13/2024 Seven Eight Capital LP22,406$6.51M0.7%+1,185.5%0.016%
5/13/2024 O Shaughnessy Asset Management LLC5,370$1.56M0.0%-82.4%0.004%
5/13/2024 Ameritas Investment Partners Inc.5,278$1.53M0.1%-2.4%0.004%
5/11/2024 Covestor Ltd382$111K0.1%+634.6%0.000%
5/11/2024 Chiron Capital Management LLC1,105$321K0.3%N/A0.001%
5/10/2024 Ontario Teachers Pension Plan Board5,814$1.69M0.0%+14.4%0.004%
5/10/2024 TIAA Trust National Association1,646$478K0.0%-7.7%0.001%
5/10/2024 Vanguard Group Inc.8,200,454$2.38B0.0%-0.6%5.694%
5/10/2024 Intech Investment Management LLC772$224K0.0%N/A0.001%
5/10/2024 Mitsubishi UFJ Trust & Banking Corp102,973$29.58M0.1%-12.7%0.071%
5/10/2024 Jupiter Asset Management Ltd.12,157$3.53M0.0%-53.6%0.008%
5/10/2024 Councilmark Asset Management LLC1,333$387K0.3%N/A0.001%
5/10/2024 Greenstone Partners & Co. LLC42,985$12.49M5.6%+50.9%0.030%
5/9/2024 Dorsey & Whitney Trust CO LLC1,170$340K0.0%+50.8%0.001%
5/9/2024 ProVise Management Group LLC832$242K0.0%N/A0.001%
5/9/2024 Orion Portfolio Solutions LLC2,875$836K0.0%+98.3%0.002%
5/9/2024 Blair William & Co. IL1,975$574K0.0%-48.1%0.001%
5/9/2024 First Eagle Investment Management LLC202$59K0.0%-61.8%0.000%
5/9/2024 Delta Investment Management LLC6,582$1.91M0.4%-0.6%0.005%
5/9/2024 Mitsubishi UFJ Asset Management Co. Ltd.124,682$36.24M0.1%+19.3%0.087%
5/9/2024 State Board of Administration of Florida Retirement System104,703$30.43M0.1%+8.3%0.073%
5/9/2024 Patton Fund Management Inc.713$207K0.0%N/A0.000%
5/8/2024 BNP PARIBAS ASSET MANAGEMENT Holding S.A.16,093$4.68M0.0%+14.0%0.011%
5/8/2024 Entropy Technologies LP20,940$6.09M0.6%+373.6%0.015%
5/8/2024 Cozad Asset Management Inc.1,245$362K0.0%-50.6%0.001%
5/8/2024 Bleakley Financial Group LLC4,465$1.30M0.0%+54.1%0.003%
5/8/2024 ProShare Advisors LLC154,314$44.85M0.1%+19.9%0.107%
5/8/2024 US Bancorp DE8,112$2.36M0.0%-14.6%0.006%
5/8/2024 Russell Investments Group Ltd.79,667$23.17M0.0%+9.6%0.055%
5/7/2024 Meeder Advisory Services Inc.1,032$300K0.0%-22.6%0.001%
5/7/2024 Sei Investments Co.127,529$37.06M0.1%+25.8%0.089%
5/7/2024 Smithfield Trust Co561$164K0.0%-61.9%0.000%
5/7/2024 Swiss National Bank287,916$83.68M0.1%-5.4%0.200%
5/7/2024 Reaves W H & Co. Inc.88,032$25.59M0.9%-18.2%0.061%
5/7/2024 Forsta AP Fonden20,100$5.84M0.0%-44.0%0.014%
5/7/2024 Illinois Municipal Retirement Fund5,159$1.50M0.0%-15.8%0.004%
5/7/2024 Oppenheimer Asset Management Inc.1,526$444K0.0%N/A0.001%
5/7/2024 Empowered Funds LLC28,609$8.32M0.2%+738.0%0.020%
5/6/2024 Quantbot Technologies LP14,291$4.15M0.2%+80.1%0.010%
5/6/2024 Envestnet Portfolio Solutions Inc.1,310$381K0.0%+111.3%0.001%
5/6/2024 Empirical Finance LLC4,074$1.18M0.1%+3.0%0.003%
5/6/2024 Gallacher Capital Management LLC767$223K0.1%N/A0.001%
5/6/2024 Texas Permanent School Fund Corp20,259$5.89M0.0%-1.7%0.014%
Shocking $16T Elon Musk Crypto Leak (Ad)

Reports of a leaked meeting between Elon Musk and staff at X.com could send shockwaves through the crypto market. Musk revealed a "mind-blowing" plan to take over the global payment system. In his own words, the world's richest man said "you won't need a bank account." Prominent voices in crypto believe what comes next will mirror a crypto mass adoption similar to the one that triggered bitcoin's last bull run.

Click here now to get your copy.
5/4/2024 DAVENPORT & Co LLC55,917$16.25M0.1%+7,809.1%0.039%
5/3/2024 Mediolanum International Funds Ltd10,385$3.05M0.0%N/A0.007%
5/3/2024 Pzena Investment Management LLC2,848,459$827.85M2.9%+96.5%1.961%
5/3/2024 Banyan Capital Management Inc.27,443$7.98M4.5%+0.2%0.019%
5/3/2024 Coronation Fund Managers Ltd.29,420$8.55M0.2%-16.5%0.020%
5/3/2024 Chevy Chase Trust Holdings LLC55,433$16.11M0.1%-3.5%0.038%
5/3/2024 BI Asset Management Fondsmaeglerselskab A S17,824$5.18M0.1%+12.9%0.012%
5/3/2024 Central Pacific Bank Trust Division4,825$1.37M0.2%N/A0.003%
5/3/2024 Whittier Trust Co.2,231$648K0.0%-4.2%0.002%
5/2/2024 Blume Capital Management Inc.1,628$473K0.1%N/A0.001%
(Data available from 1/1/2016 forward)

CHTR Institutional Ownership - Frequently Asked Questions

Who are the largest shareholders of CHTR shares?

During the previous two years, 919 institutional investors and hedge funds held shares of Charter Communications. The most heavily invested institutionals were Aspire Private Capital LLC ($194.90B), Dodge & Cox ($3.11B), Capital International Investors ($3.07B), BlackRock Inc. ($2.44B), Vanguard Group Inc. ($2.38B), State Street Corp ($1.98B), and Massachusetts Financial Services Co. MA ($978.76M).Learn more on CHTR's institutional investors.

What percentage of Charter Communications stock is owned by institutional investors?

81.76% of Charter Communications stock is owned by institutional investors. Learn more on CHTR's institutional investor holdings.

Which institutional investors have been buying Charter Communications stock?

Of the 735 institutional investors that purchased Charter Communications stock in the last 24 months, the following investors and hedge funds have bought the highest volume of shares: Capital International Investors ($4.12M), Pzena Investment Management LLC ($2.86M), FMR LLC ($1.90M), Parnassus Investments LLC ($1.62M), Massachusetts Financial Services Co. MA ($1.01M), Vanguard Group Inc. ($972.75K), and Norges Bank ($799.44K).

How much institutional buying is happening at Charter Communications?

Institutional investors have bought a total of 25,600,791 shares in the last 24 months. This purchase volume represents approximately $9.51B in transactions.

Which Charter Communications major shareholders have been selling company stock?

Of the 560 institutional investors that sold Charter Communications stock in the last 24 months, the following investors and hedge funds have sold the highest volume of shares: Pacer Advisors Inc. ($7.12M), Price T Rowe Associates Inc. MD ($2.23M), Veritas Asset Management LLP ($1.79M), Massachusetts Financial Services Co. MA ($1.64M), FMR LLC ($1.35M), Capital International Investors ($1.03M), and BlackRock Inc. ($907.34K).

How much institutional selling is happening at Charter Communications?

Institutional investors have sold a total of 28,926,278 shares in the last 24 months. This volume of shares sold represents approximately $10.86B in transactions.


This page (NASDAQ:CHTR) was last updated on 5/19/2024 by MarketBeat.com Staff

From Our Partners